createdAt,value
2023-03-17T00:01:09.799Z,78398.69
2023-03-17T00:03:38.676Z,78388.56
2023-03-17T00:06:05.833Z,78400.69
2023-03-17T00:08:34.787Z,78408.81
2023-03-17T00:11:01.893Z,78402.72
2023-03-17T00:13:28.934Z,78406.78
2023-03-17T00:15:59.665Z,78412.84
2023-03-17T00:18:26.247Z,78414.88
2023-03-17T00:20:52.774Z,78422.97
2023-03-17T00:23:21.879Z,78420.97
2023-03-17T00:25:49.097Z,78412.84
2023-03-17T00:28:24.836Z,78422.97
2023-03-17T00:30:57.456Z,78414.88
2023-03-17T00:33:26.951Z,78412.84
2023-03-17T00:35:54.266Z,78425.00
2023-03-17T00:38:21.896Z,78431.09
2023-03-17T00:40:48.814Z,78429.06
2023-03-17T00:43:15.349Z,78425.00
2023-03-17T00:45:42.509Z,78414.88
2023-03-17T00:48:15.006Z,78404.75
2023-03-17T00:50:42.585Z,78396.66
2023-03-17T00:53:15.389Z,78404.75
2023-03-17T00:55:43.513Z,78400.69
2023-03-17T00:58:14.895Z,78420.97
2023-03-17T01:00:41.480Z,78427.03
2023-03-17T01:03:11.463Z,78418.94
2023-03-17T01:05:38.669Z,78422.97
2023-03-17T01:08:05.943Z,78420.97
2023-03-17T01:10:32.667Z,78412.84
2023-03-17T01:12:59.622Z,78406.78
2023-03-17T01:15:30.026Z,78400.69
2023-03-17T06:04:07.867Z,78435.13
2023-03-17T06:06:34.766Z,78410.84
2023-03-17T06:09:01.598Z,78382.47
2023-03-17T06:11:28.329Z,78372.34
2023-03-17T06:13:54.856Z,78366.28
2023-03-17T06:16:21.444Z,78346.00
2023-03-17T06:18:48.663Z,78331.84
2023-03-17T06:21:15.677Z,78335.88
2023-03-17T06:23:42.300Z,78341.97
2023-03-17T06:26:08.993Z,78344.00
2023-03-17T06:28:35.819Z,78348.03
2023-03-17T06:31:04.135Z,78327.78
2023-03-17T06:33:32.683Z,78311.59
2023-03-17T06:36:00.536Z,78273.09
2023-03-17T06:38:27.552Z,78277.16
2023-03-17T06:40:54.038Z,78275.13
2023-03-17T06:43:22.156Z,78295.38
2023-03-17T06:45:48.940Z,78295.38
2023-03-17T06:48:15.457Z,78301.47
2023-03-17T06:50:42.052Z,78307.53
2023-03-17T06:53:08.564Z,78299.44
2023-03-17T06:55:35.191Z,78295.38
2023-03-17T06:58:03.096Z,78279.19
2023-03-17T07:00:30.403Z,78275.13
2023-03-17T07:02:57.763Z,78265.00
2023-03-17T07:05:24.381Z,78269.06
2023-03-17T07:07:50.951Z,78250.81
2023-03-17T07:10:18.104Z,78250.81
2023-03-17T07:12:45.312Z,78230.56
2023-03-17T07:15:12.629Z,78222.47
2023-03-17T07:17:39.335Z,78194.13
2023-03-17T07:20:06.532Z,78177.91
2023-03-17T07:22:33.156Z,78165.75
2023-03-17T07:24:59.976Z,78151.59
2023-03-17T07:27:26.663Z,78127.28
2023-03-17T07:29:53.455Z,78111.09
2023-03-17T07:32:20.185Z,78044.25
2023-03-17T07:34:47.032Z,77934.91
2023-03-17T07:37:13.637Z,77791.09
2023-03-17T07:39:40.935Z,77355.75
2023-03-17T07:42:08.723Z,76920.41
2023-03-17T07:44:36.365Z,76608.63
2023-03-17T07:47:07.638Z,76422.41
2023-03-17T07:49:41.281Z,76452.75
2023-03-17T07:52:10.487Z,76276.63
2023-03-17T07:54:37.691Z,76426.44
2023-03-17T07:57:05.079Z,76387.97
2023-03-17T07:59:31.952Z,76246.28
2023-03-17T08:02:00.239Z,76228.06
2023-03-17T08:04:27.683Z,76145.06
2023-03-17T08:06:54.632Z,76311.06
2023-03-17T08:09:22.340Z,76462.88
2023-03-17T08:11:49.543Z,76470.97
2023-03-17T08:14:16.373Z,76282.72
2023-03-17T08:16:42.981Z,76266.53
2023-03-17T08:19:11.048Z,76183.53
2023-03-17T08:21:38.087Z,76043.84
2023-03-17T08:24:05.322Z,76070.16
2023-03-17T08:26:33.880Z,75989.19
2023-03-17T08:29:01.473Z,76181.50
2023-03-17T08:31:31.393Z,76383.94
2023-03-17T08:33:58.674Z,76606.63
2023-03-17T08:36:26.225Z,76857.66
2023-03-17T08:38:53.031Z,77007.47
2023-03-17T08:41:22.941Z,77286.91
2023-03-17T08:43:51.094Z,77400.28
2023-03-17T08:46:27.211Z,77454.97
2023-03-17T08:48:56.394Z,77371.94
2023-03-17T08:51:25.445Z,77345.63
2023-03-17T08:53:53.253Z,77434.72
2023-03-17T08:56:20.037Z,77477.25
2023-03-17T08:58:48.566Z,77501.53
2023-03-17T09:01:15.846Z,77491.41
2023-03-17T09:03:43.189Z,77501.53
2023-03-17T09:06:12.469Z,77501.53
2023-03-17T09:08:44.669Z,77446.88
2023-03-17T09:11:15.213Z,77420.53
2023-03-17T09:13:42.088Z,77465.09
2023-03-17T09:16:09.065Z,77479.25
2023-03-17T09:18:36.145Z,77564.31
2023-03-17T09:21:03.654Z,77525.84
2023-03-17T09:23:30.960Z,77461.03
2023-03-17T09:25:57.682Z,77475.22
2023-03-17T09:28:24.810Z,77461.03
2023-03-17T09:30:51.713Z,77481.28
2023-03-17T09:33:18.686Z,77487.34
2023-03-17T09:35:45.544Z,77436.75
2023-03-17T09:38:12.904Z,77438.75
2023-03-17T09:40:51.440Z,77410.41
2023-03-17T09:43:29.047Z,77392.19
2023-03-17T09:45:56.140Z,77396.25
2023-03-17T09:48:26.102Z,77420.53
2023-03-17T09:50:55.729Z,77467.13
2023-03-17T09:53:28.565Z,77471.16
2023-03-17T09:55:58.579Z,77465.09
2023-03-17T09:58:31.289Z,77471.16
2023-03-17T10:00:58.801Z,77485.34
2023-03-17T10:03:25.832Z,77479.25
2023-03-17T10:05:52.814Z,77454.97
2023-03-17T10:08:31.701Z,77442.81
2023-03-17T10:10:58.690Z,77434.72
2023-03-17T10:13:47.230Z,77412.44
2023-03-17T10:16:18.768Z,77430.66
2023-03-17T10:18:52.182Z,77430.66
2023-03-17T10:21:24.292Z,77408.38
2023-03-17T10:23:51.229Z,77392.19
2023-03-17T10:26:40.054Z,77367.91
2023-03-17T10:29:17.584Z,77355.75
2023-03-17T10:31:44.872Z,77349.66
2023-03-17T10:34:20.451Z,77357.78
2023-03-17T10:36:53.434Z,77345.63
2023-03-17T10:39:23.075Z,77349.66
2023-03-17T10:42:00.341Z,77363.84
2023-03-17T10:44:56.309Z,77420.53
2023-03-17T10:47:38.270Z,77398.25
2023-03-17T10:50:23.055Z,77396.25
2023-03-17T10:52:58.023Z,77369.91
2023-03-17T10:55:29.336Z,77386.13
2023-03-17T10:58:16.786Z,77384.09
2023-03-17T11:00:58.455Z,77359.78
2023-03-17T11:03:28.630Z,77335.50
2023-03-17T11:05:56.791Z,77359.78
2023-03-17T11:08:24.051Z,77384.09
2023-03-17T11:10:56.705Z,77396.25
2023-03-17T11:13:28.966Z,77392.19
2023-03-17T11:16:24.802Z,77347.66
2023-03-17T11:18:55.122Z,77319.28
2023-03-17T11:21:52.506Z,77315.25
2023-03-17T11:24:23.009Z,77335.50
2023-03-17T11:27:00.057Z,77343.59
2023-03-17T11:29:57.682Z,77313.22
2023-03-17T11:32:44.527Z,77297.03
2023-03-17T11:35:14.190Z,77274.75
2023-03-17T11:37:49.035Z,77315.25
2023-03-17T11:40:20.648Z,77351.69
2023-03-17T11:42:59.365Z,77341.56
2023-03-17T11:46:20.166Z,77327.41
2023-03-17T11:49:24.991Z,77317.28
2023-03-17T11:51:59.224Z,77323.34
2023-03-17T11:54:41.474Z,77317.28
2023-03-17T11:57:32.943Z,77327.41
2023-03-17T12:00:07.141Z,77286.91
2023-03-17T12:02:39.442Z,77270.69
2023-03-17T12:05:10.339Z,77274.75
2023-03-17T12:07:42.376Z,77266.66
2023-03-17T12:10:22.597Z,77266.66
2023-03-17T12:13:27.090Z,77256.53
2023-03-17T12:15:58.482Z,77264.63
2023-03-17T12:18:39.823Z,77278.81
2023-03-17T12:21:12.066Z,77276.78
2023-03-17T12:24:04.388Z,77292.97
2023-03-17T12:26:35.587Z,77286.91
2023-03-17T12:29:15.390Z,77288.91
2023-03-17T12:31:47.160Z,77288.91
2023-03-17T12:34:20.450Z,77288.91
2023-03-17T12:36:49.042Z,77299.03
2023-03-17T12:39:21.908Z,77311.19
2023-03-17T12:42:01.709Z,77305.13
2023-03-17T12:45:19.797Z,77290.94
2023-03-17T12:48:42.304Z,77290.94
2023-03-17T12:51:24.968Z,77284.88
2023-03-17T12:53:52.515Z,77262.59
2023-03-17T12:56:30.909Z,77256.53
2023-03-17T12:59:06.719Z,77242.34
2023-03-17T13:01:40.746Z,77264.63
2023-03-17T13:04:13.166Z,77246.41
2023-03-17T13:06:44.997Z,77268.69
2023-03-17T13:09:38.507Z,77270.69
2023-03-17T13:12:06.934Z,77270.69
2023-03-17T13:14:44.723Z,77250.44
2023-03-17T13:17:17.594Z,77226.16
2023-03-17T13:20:11.378Z,77218.06
2023-03-17T13:22:40.885Z,77234.25
2023-03-17T13:25:35.390Z,77232.22
2023-03-17T13:28:13.865Z,77258.56
2023-03-17T13:30:40.488Z,77266.66
2023-03-17T13:33:09.792Z,77260.56
2023-03-17T13:35:41.814Z,77260.56
2023-03-17T13:38:27.199Z,77260.56
2023-03-17T13:41:22.584Z,77268.69
2023-03-17T13:44:15.710Z,77278.81
2023-03-17T13:46:49.109Z,77270.69
2023-03-17T13:49:22.682Z,77272.72
2023-03-17T13:52:00.256Z,77256.53
2023-03-17T13:54:28.077Z,77238.31
2023-03-17T13:56:56.382Z,77234.25
2023-03-17T14:00:02.016Z,77232.22
2023-03-17T14:02:33.929Z,77224.13
2023-03-17T14:05:04.639Z,77244.38
2023-03-17T14:07:38.858Z,77254.50
2023-03-17T14:10:05.753Z,77258.56
2023-03-17T14:12:39.698Z,77260.56
2023-03-17T14:15:15.462Z,77234.25
2023-03-17T14:17:50.584Z,77220.06
2023-03-17T14:20:17.121Z,77187.69
2023-03-17T14:22:46.049Z,77183.63
2023-03-17T14:25:18.412Z,77165.41
2023-03-17T14:27:48.469Z,77161.38
2023-03-17T14:30:34.357Z,77181.59
2023-03-17T14:33:04.698Z,77177.56
2023-03-17T14:35:39.084Z,77165.41
2023-03-17T14:38:22.105Z,77169.47
2023-03-17T14:40:49.923Z,77167.44
2023-03-17T14:43:16.817Z,77173.50
2023-03-17T14:45:48.535Z,77181.59
2023-03-17T14:48:18.261Z,77177.56
2023-03-17T14:51:20.968Z,77214.00
2023-03-17T14:53:48.800Z,77234.25
2023-03-17T14:56:15.692Z,77246.41
2023-03-17T14:58:44.017Z,77238.31
2023-03-17T15:01:39.725Z,77238.31
2023-03-17T15:04:06.592Z,77232.22
2023-03-17T15:06:37.547Z,77218.06
2023-03-17T15:09:17.627Z,77226.16
2023-03-17T15:11:44.794Z,77201.84
2023-03-17T15:14:35.508Z,77193.75
2023-03-17T15:17:04.403Z,77191.72
2023-03-17T15:19:49.200Z,77205.91
2023-03-17T15:22:26.025Z,77216.03
2023-03-17T15:25:01.348Z,77209.97
2023-03-17T15:27:29.420Z,77197.81
2023-03-17T15:29:56.474Z,77185.66
2023-03-17T15:32:25.753Z,77195.78
2023-03-17T15:34:54.716Z,77197.81
2023-03-17T15:37:27.008Z,77203.88
2023-03-17T15:39:55.212Z,77207.94
2023-03-17T15:42:25.332Z,77222.09
2023-03-17T15:44:52.528Z,77242.34
2023-03-17T15:47:21.161Z,77262.59
2023-03-17T15:49:49.704Z,77258.56
2023-03-17T15:52:27.349Z,77282.84
2023-03-17T15:54:56.222Z,77295.00
2023-03-17T15:57:23.085Z,77295.00
2023-03-17T15:59:49.546Z,77297.03
2023-03-17T16:02:27.478Z,77303.09
2023-03-17T16:04:55.154Z,77315.25
2023-03-17T16:07:22.355Z,77311.19
2023-03-17T16:09:48.806Z,77323.34
2023-03-17T16:12:15.894Z,77331.44
2023-03-17T16:14:43.056Z,77327.41
2023-03-17T16:17:28.716Z,77343.59
2023-03-17T16:19:56.223Z,77347.66
2023-03-17T16:22:28.869Z,77355.75
2023-03-17T16:24:55.439Z,77367.91
2023-03-17T16:27:22.362Z,77355.75
2023-03-17T16:29:49.025Z,77351.69
2023-03-17T16:32:15.660Z,77359.78
2023-03-17T16:34:42.586Z,77363.84
2023-03-17T16:37:14.985Z,77363.84
2023-03-17T16:39:42.473Z,77392.19
2023-03-17T16:42:24.416Z,77400.28
2023-03-17T16:44:51.100Z,77404.34
2023-03-17T16:47:17.784Z,77414.47
2023-03-17T16:49:44.417Z,77426.63
2023-03-17T16:52:12.112Z,77430.66
2023-03-17T16:54:38.775Z,77430.66
2023-03-17T16:57:07.772Z,77442.81
2023-03-17T16:59:34.708Z,77428.63
2023-03-17T17:02:01.975Z,77440.78
2023-03-17T17:04:28.749Z,77457.00
2023-03-17T17:06:56.752Z,77457.00
2023-03-17T17:09:23.342Z,77461.03
2023-03-17T17:11:49.917Z,77457.00
2023-03-17T17:14:16.513Z,77465.09
2023-03-17T17:16:43.179Z,77467.13
2023-03-17T17:19:16.228Z,77473.19
2023-03-17T17:21:43.637Z,77467.13
2023-03-17T17:24:12.234Z,77454.97
2023-03-17T17:26:38.924Z,77469.13
2023-03-17T17:29:05.772Z,77473.19
2023-03-17T17:31:32.313Z,77475.22
2023-03-17T17:33:58.805Z,77489.38
2023-03-17T17:36:26.134Z,77497.47
2023-03-17T17:38:52.668Z,77495.47
2023-03-17T17:41:21.558Z,77497.47
2023-03-17T17:43:48.925Z,77503.56
2023-03-17T17:46:21.505Z,77503.56
2023-03-17T17:48:49.058Z,77511.66
2023-03-17T17:51:15.921Z,77515.72
2023-03-17T17:53:42.408Z,77509.63
2023-03-17T17:56:14.105Z,77525.84
2023-03-17T17:58:40.600Z,77529.88
2023-03-17T18:01:07.298Z,77529.88
2023-03-17T18:03:34.023Z,77529.88
2023-03-17T18:06:01.115Z,77533.94
2023-03-17T18:08:27.751Z,77535.97
2023-03-17T18:10:55.877Z,77533.94
2023-03-17T18:13:22.433Z,77542.03
2023-03-17T18:15:49.434Z,77542.03
2023-03-17T18:18:16.019Z,77550.13
2023-03-17T18:20:42.613Z,77562.28
2023-03-17T18:23:09.263Z,77570.38
2023-03-17T18:25:37.066Z,77562.28
2023-03-17T18:28:03.702Z,77566.34
2023-03-17T18:30:31.908Z,77570.38
2023-03-17T18:33:04.082Z,77576.47
2023-03-17T18:35:30.921Z,77568.34
2023-03-17T18:37:57.949Z,77570.38
2023-03-17T18:40:25.640Z,77572.41
2023-03-17T18:42:52.271Z,77582.53
2023-03-17T18:45:18.816Z,77586.59
2023-03-17T18:47:45.303Z,77582.53
2023-03-17T18:50:13.668Z,77580.50
2023-03-17T18:52:41.311Z,77592.66
2023-03-17T18:55:08.922Z,77590.63
2023-03-17T18:57:35.719Z,77600.75
2023-03-17T19:00:02.306Z,77606.84
2023-03-17T19:02:29.090Z,77602.78
2023-03-17T19:04:55.988Z,77602.78
2023-03-17T19:07:22.580Z,77606.84
2023-03-17T19:09:49.286Z,77606.84
2023-03-17T19:12:15.776Z,77598.72
2023-03-17T19:14:42.620Z,77606.84
2023-03-17T19:17:09.247Z,77604.81
2023-03-17T19:19:36.711Z,77602.78
2023-03-17T19:22:03.973Z,77606.84
2023-03-17T19:24:31.593Z,77610.88
2023-03-17T19:26:58.213Z,77606.84
2023-03-17T19:29:24.810Z,77606.84
2023-03-17T19:31:51.282Z,77600.75
2023-03-17T19:34:17.824Z,77604.81
2023-03-17T19:36:47.274Z,77606.84
2023-03-17T19:39:14.564Z,77608.84
2023-03-17T19:41:41.065Z,77610.88
2023-03-17T19:44:07.722Z,77614.94
2023-03-17T19:46:36.534Z,77616.97
2023-03-17T19:49:04.719Z,77623.03
2023-03-17T19:51:31.919Z,77616.97
2023-03-17T19:53:58.576Z,77616.97
2023-03-17T19:56:25.118Z,77625.06
2023-03-17T19:58:52.044Z,77633.16
2023-03-17T20:01:18.782Z,77627.09
2023-03-17T20:03:46.195Z,77635.19
2023-03-17T20:06:13.768Z,77633.16
2023-03-17T20:08:42.735Z,77643.28
2023-03-17T20:11:11.533Z,77651.38
2023-03-17T20:13:38.878Z,77647.34
2023-03-17T20:16:07.061Z,77651.38
2023-03-17T20:18:34.038Z,77643.28
2023-03-17T20:21:05.359Z,77649.34
2023-03-17T20:23:32.197Z,77651.38
2023-03-17T20:25:58.915Z,77657.47
2023-03-17T20:28:25.499Z,77663.53
2023-03-17T20:30:52.460Z,77663.53
2023-03-17T20:33:19.026Z,77663.53
2023-03-17T20:35:48.933Z,77667.59
2023-03-17T20:38:15.484Z,77667.59
2023-03-17T20:40:42.305Z,77667.59
2023-03-17T20:43:09.459Z,77671.63
2023-03-17T20:45:37.006Z,77669.59
2023-03-17T20:48:05.025Z,77669.59
2023-03-17T20:50:32.889Z,77679.72
2023-03-17T20:52:59.846Z,77683.78
2023-03-17T20:55:26.346Z,77675.69
2023-03-17T20:57:52.901Z,77673.66
2023-03-17T21:00:21.237Z,77679.72
2023-03-17T21:02:50.630Z,77679.72
2023-03-17T21:05:23.106Z,77673.66
2023-03-17T21:07:50.616Z,77685.81
2023-03-17T21:10:17.953Z,77679.72
2023-03-17T21:12:44.902Z,77667.59
2023-03-17T21:15:12.961Z,77677.72
2023-03-17T21:17:39.958Z,77683.78
2023-03-17T21:20:07.470Z,77687.84
2023-03-17T21:22:36.158Z,77679.72
2023-03-17T21:25:04.101Z,77681.75
2023-03-17T21:27:30.678Z,77671.63
2023-03-17T21:29:57.334Z,77675.69
2023-03-17T21:32:24.498Z,77687.84
2023-03-17T21:34:51.436Z,77691.88
2023-03-17T21:37:18.819Z,77695.94
2023-03-17T21:39:45.940Z,77704.03
2023-03-17T21:42:12.781Z,77702.00
2023-03-17T21:44:40.657Z,77693.91
2023-03-17T21:47:07.713Z,77695.94
2023-03-17T21:49:34.312Z,77704.03
2023-03-17T21:52:01.421Z,77706.06
2023-03-17T21:54:28.442Z,77716.19
2023-03-17T21:56:54.945Z,77714.16
2023-03-17T21:59:21.541Z,77712.13
2023-03-17T22:01:52.111Z,77724.28
2023-03-17T22:04:18.872Z,77722.25
2023-03-17T22:06:45.523Z,77714.16
2023-03-17T22:09:15.337Z,77720.22
2023-03-17T22:11:43.036Z,77730.34
2023-03-17T22:14:12.027Z,77716.19
2023-03-17T22:16:38.577Z,77712.13
2023-03-17T22:19:05.111Z,77714.16
2023-03-17T22:21:31.818Z,77720.22
2023-03-17T22:23:58.567Z,77714.16
2023-03-17T22:26:25.108Z,77706.06
2023-03-17T22:28:51.681Z,77716.19
2023-03-17T22:31:23.475Z,77714.16
2023-03-17T22:33:52.621Z,77712.13
2023-03-17T22:36:19.244Z,77706.06
2023-03-17T22:38:47.068Z,77708.09
2023-03-17T22:41:16.578Z,77712.13
2023-03-17T22:43:43.443Z,77716.19
2023-03-17T22:46:11.014Z,77720.22
2023-03-17T22:48:37.611Z,77714.16
2023-03-17T22:51:06.391Z,77716.19
2023-03-17T22:53:33.886Z,77720.22
2023-03-17T22:56:00.780Z,77724.28
2023-03-17T22:58:27.706Z,77710.09
2023-03-17T23:00:55.343Z,77714.16
2023-03-17T23:03:22.961Z,77714.16
2023-03-17T23:05:51.221Z,77708.09
2023-03-17T23:08:19.159Z,77716.19
2023-03-17T23:10:48.798Z,77716.19
2023-03-17T23:13:16.038Z,77710.09
2023-03-17T23:15:42.606Z,77710.09
2023-03-17T23:18:10.305Z,77720.22
2023-03-17T23:20:39.903Z,77720.22
2023-03-17T23:23:08.391Z,77697.97
2023-03-17T23:25:36.525Z,77702.00
2023-03-17T23:28:03.106Z,77691.88
2023-03-17T23:30:30.872Z,77720.22
2023-03-17T23:32:58.102Z,77712.13
2023-03-17T23:35:25.253Z,77726.31
2023-03-17T23:37:52.019Z,77706.06
2023-03-17T23:40:18.614Z,77720.22
2023-03-17T23:42:48.054Z,77695.94
2023-03-17T23:45:18.386Z,77712.13
2023-03-17T23:47:47.074Z,77708.09
2023-03-17T23:50:14.593Z,77724.28
2023-03-17T23:52:42.413Z,77728.34
2023-03-17T23:55:11.824Z,77720.22
2023-03-17T23:57:38.961Z,77722.25
